Impacts METAR Board
IDs:

KEET - Alabaster/Shelby Cnt, AL, US

Updated at: 0300 UTC 23 Oct 2018
Potential Impact None Slight Moderate High
Time 22/15Z 22/16Z 22/17Z 22/18Z 22/19Z 22/20Z 22/21Z 22/22Z 22/23Z 23/00Z 23/01Z 23/02Z 23/03Z
Temp54 61 64 66 66 66 67 66 63 59 56 55 54
Dewpt40 38 39 39 39 40 40 42 45 47 48 48 47
Altim30.31 30.30 30.28 30.25 30.22 30.21 30.20 30.20 30.20 30.21 30.21 30.21 30.22
VIS10 10 10 10 10 10 10 10 9 8 7 7 7
CIG-- -- -- -- -- -- -- -- -- -- -- -- --
CoverCLRCLRCLRCLRCLRCLRCLRCLRCLRCLRCLRCLRCLR
FltCatVFRVFRVFRVFRVFRVFRVFRVFRVFRVFRVFRVFRVFR
WX--------------------------
WDir016016080000000000
WSpd3 9 7 5 5 0 3 0 0 0 0 0 0
WGst-- -- -- -- -- -- -- -- -- -- -- -- --
Raw hourly METARs
KEET 221453Z AUTO VRB03KT 10SM CLR 12/04 A3031 RMK AO2 SLP264 T01220044 51014
KEET 221553Z AUTO 16009KT 10SM CLR 16/03 A3030 RMK AO2 SLP258 T01610033
KEET 221653Z AUTO 16007KT 10SM CLR 18/04 A3028 RMK AO2 SLP254 T01780039
KEET 221753Z AUTO 08005KT 10SM CLR 19/04 A3025 RMK AO2 SLP242 T01890039 10189 20056 58020
KEET 221853Z AUTO VRB05KT 10SM CLR 19/04 A3022 RMK AO2 SLP232 T01890039
KEET 221953Z AUTO 00000KT 10SM CLR 19/04 A3021 RMK AO2 SLP228 T01890044
KEET 222053Z AUTO VRB03KT 10SM CLR 19/04 A3020 RMK AO2 SLP225 T01940044 56017
KEET 222153Z AUTO 00000KT 10SM CLR 19/06 A3020 RMK AO2 SLP223 T01890056
KEET 222253Z AUTO 00000KT 9SM CLR 17/07 A3020 RMK AO2 SLP225 T01720072
KEET 222353Z AUTO 00000KT 8SM CLR 15/08 A3021 RMK AO2 SLP229 T01500083 10206 20150 53003
KEET 230053Z AUTO 00000KT 7SM CLR 13/09 A3021 RMK AO2 SLP228 T01330089
KEET 230153Z AUTO 00000KT 7SM CLR 13/09 A3021 RMK AO2 SLP230 T01280089
KEET 230253Z AUTO 00000KT 7SM CLR 12/08 A3022 RMK AO2 SLP231 T01220083 53003



Page loaded:  03:40 UTC  |   08:40 PM Pacific  |   09:40 PM Mountain  |   10:40 PM Central  |   11:40 PM Eastern

 

ADVISORIES

FORECASTS

FORECASTS

OBSERVATIONS

USER TOOLS

ABOUT US